createdAt,value
2018-09-28T00:00:14.118Z,539.3
2018-09-28T00:01:16.549Z,539.3
2018-09-28T00:02:18.715Z,539.2
2018-09-28T00:03:21.138Z,539.7
2018-09-28T00:04:23.568Z,539.5
2018-09-28T00:05:25.991Z,540
2018-09-28T00:06:28.417Z,539.9
2018-09-28T00:07:30.846Z,540.2
2018-09-28T00:08:32.998Z,540
2018-09-28T00:09:35.143Z,540.3
2018-09-28T00:10:37.023Z,540.4
2018-09-28T00:11:39.457Z,540.4
2018-09-28T00:12:41.883Z,540.5
2018-09-28T00:13:44.348Z,540.4
2018-09-28T00:14:46.775Z,540.5
2018-09-28T00:15:49.221Z,540.4
2018-09-28T00:16:51.645Z,540.4
2018-09-28T00:17:54.093Z,540.4
2018-09-28T00:18:56.259Z,540.5
2018-09-28T00:19:58.699Z,540.4
2018-09-28T00:21:01.133Z,540.4
2018-09-28T00:22:03.613Z,540.8
2018-09-28T00:23:06.032Z,540.9
2018-09-28T00:24:08.460Z,540.9
2018-09-28T00:25:10.887Z,540.8
2018-09-28T00:26:13.317Z,541.1
2018-09-28T00:27:15.465Z,541.2
2018-09-28T00:28:17.632Z,541.2
2018-09-28T00:29:20.060Z,541.2
2018-09-28T00:30:22.211Z,541.2
2018-09-28T00:31:24.626Z,541.4
2018-09-28T00:32:27.064Z,541.3
2018-09-28T00:33:29.527Z,541.9
2018-09-28T00:34:31.965Z,541.5
2018-09-28T00:35:34.394Z,541.7
2018-09-28T00:36:36.825Z,542.1
2018-09-28T00:37:39.259Z,541.7
2018-09-28T00:38:41.416Z,542.1
2018-09-28T00:39:43.847Z,542.4
2018-09-28T00:40:46.277Z,542.3
2018-09-28T00:41:48.712Z,542.8
2018-09-28T00:42:51.159Z,542.8
2018-09-28T00:43:53.326Z,542.6
2018-09-28T00:44:55.766Z,543
2018-09-28T00:45:58.185Z,543.4
2018-09-28T00:47:00.606Z,543.7
2018-09-28T00:48:03.046Z,543.5
2018-09-28T00:49:05.477Z,543.7
2018-09-28T00:50:07.917Z,543.9
2018-09-28T00:51:10.340Z,544
2018-09-28T00:52:12.486Z,544
2018-09-28T00:53:14.642Z,543.6
2018-09-28T00:54:17.080Z,544.2
2018-09-28T00:55:19.200Z,543.9
2018-09-28T00:56:21.623Z,544.5
2018-09-28T00:57:23.851Z,544.4
2018-09-28T00:58:26.277Z,544.8
2018-09-28T00:59:28.446Z,544.8
2018-09-28T01:00:30.585Z,544.5
2018-09-28T01:01:33.046Z,544.6
2018-09-28T01:02:35.476Z,544.9
2018-09-28T01:03:37.340Z,545
2018-09-28T01:04:39.760Z,545.1
2018-09-28T01:05:42.195Z,545.1
2018-09-28T01:06:44.633Z,545.1
2018-09-28T01:07:47.069Z,545.4
2018-09-28T01:08:49.234Z,545.4
2018-09-28T01:09:51.651Z,545.4
2018-09-28T01:10:54.089Z,545.4
2018-09-28T01:11:56.253Z,545.8
2018-09-28T01:12:58.404Z,546
2018-09-28T01:14:00.567Z,546.4
2018-09-28T01:15:03.001Z,546.3
2018-09-28T01:16:05.185Z,546.1
2018-09-28T01:17:07.626Z,546.1
2018-09-28T01:18:10.060Z,546
2018-09-28T01:19:12.219Z,546.2
2018-09-28T01:20:14.645Z,546.5
2018-09-28T01:21:17.087Z,546.2
2018-09-28T01:22:19.518Z,546.3
2018-09-28T01:23:21.666Z,546.6
2018-09-28T01:24:24.092Z,546.6
2018-09-28T01:25:26.534Z,546.8
2018-09-28T01:26:28.755Z,547.1
2018-09-28T01:27:30.637Z,547.1
2018-09-28T01:28:32.807Z,547
2018-09-28T01:29:35.251Z,546.9
2018-09-28T01:30:37.411Z,546.9
2018-09-28T01:31:39.570Z,547
2018-09-28T01:32:42.011Z,547.2
2018-09-28T01:33:44.432Z,547.5
2018-09-28T01:34:46.847Z,547.7
2018-09-28T01:35:49.277Z,547.7
2018-09-28T01:36:51.455Z,547.9
2018-09-28T01:37:53.600Z,547.7
2018-09-28T01:38:56.027Z,547.5
2018-09-28T01:39:58.451Z,547.8
2018-09-28T01:41:00.603Z,548
2018-09-28T01:42:03.038Z,547.8
2018-09-28T01:43:05.480Z,547.9
2018-09-28T01:44:07.907Z,547.8
2018-09-28T01:45:10.054Z,547.8
2018-09-28T01:46:12.221Z,547.9
2018-09-28T01:47:14.654Z,548
2018-09-28T01:48:17.096Z,548.1
2018-09-28T01:49:19.525Z,547.6
2018-09-28T01:50:21.954Z,548
2018-09-28T01:51:24.402Z,548
2018-09-28T01:52:26.869Z,548.2
2018-09-28T01:53:29.291Z,548.1
2018-09-28T01:54:31.724Z,548.3
2018-09-28T01:55:34.188Z,548.2
2018-09-28T01:56:36.618Z,548.1
2018-09-28T01:57:39.045Z,548.2
2018-09-28T01:58:41.208Z,548.3
2018-09-28T01:59:43.640Z,548.5
2018-09-28T02:00:45.796Z,548.4
2018-09-28T02:01:48.229Z,548.4
2018-09-28T02:02:50.653Z,548.4
2018-09-28T02:03:53.082Z,548.7
2018-09-28T02:04:55.516Z,548.6
2018-09-28T02:05:57.946Z,548.7
2018-09-28T02:07:00.097Z,549.2
2018-09-28T02:08:02.269Z,549.3
2018-09-28T02:09:04.429Z,548.9
2018-09-28T02:10:06.902Z,549.5
2018-09-28T02:11:09.048Z,549.6
2018-09-28T02:12:10.935Z,549.4
2018-09-28T02:13:13.368Z,549.6
2018-09-28T02:14:15.517Z,549.4
2018-09-28T02:15:17.681Z,549.5
2018-09-28T02:16:20.115Z,549.3
2018-09-28T02:17:22.276Z,549.9
2018-09-28T02:18:24.431Z,549.8
2018-09-28T02:19:26.587Z,549.7
2018-09-28T02:20:28.745Z,549.9
2018-09-28T02:21:30.925Z,550.2
2018-09-28T02:22:33.097Z,550.3
2018-09-28T02:23:35.543Z,550.4
2018-09-28T02:24:37.692Z,550.5
2018-09-28T02:25:40.123Z,550.5
2018-09-28T02:26:42.287Z,550.5
2018-09-28T02:27:44.500Z,550.5
2018-09-28T02:28:46.932Z,550.6
2018-09-28T02:29:49.368Z,550.9
2018-09-28T02:30:51.790Z,550.9
2018-09-28T02:31:53.947Z,550.8
2018-09-28T02:32:56.104Z,550.5
2018-09-28T02:33:58.264Z,551.1
2018-09-28T02:35:00.704Z,550.9
2018-09-28T02:36:03.127Z,551.1
2018-09-28T02:37:05.553Z,550.9
2018-09-28T02:38:07.711Z,551.1
2018-09-28T02:39:10.145Z,550.8
2018-09-28T02:40:12.588Z,551.1
2018-09-28T02:41:15.013Z,550.9
2018-09-28T02:42:17.186Z,551.5
2018-09-28T02:43:19.604Z,551.2
2018-09-28T02:44:21.769Z,551.6
2018-09-28T02:45:24.206Z,551.5
2018-09-28T02:46:26.365Z,551.6
2018-09-28T02:47:28.800Z,551.6
2018-09-28T02:48:31.332Z,551.6
2018-09-28T02:49:33.803Z,551.7
2018-09-28T02:50:35.691Z,551.9
2018-09-28T02:51:38.133Z,552
2018-09-28T02:52:40.558Z,552.4
2018-09-28T02:53:42.725Z,552.7
2018-09-28T02:54:45.157Z,552.2
2018-09-28T02:55:47.303Z,552.2
2018-09-28T02:56:49.981Z,552.8
2018-09-28T02:57:52.452Z,552.8
2018-09-28T02:58:54.967Z,552.8
2018-09-28T02:59:57.388Z,553.1
2018-09-28T03:00:59.838Z,553.1
2018-09-28T03:02:02.318Z,553
2018-09-28T03:03:04.464Z,553.4
2018-09-28T03:04:06.895Z,553.2
2018-09-28T03:05:09.330Z,553
2018-09-28T03:06:11.557Z,553
2018-09-28T03:07:13.980Z,552.9
2018-09-28T03:08:16.122Z,552.6
2018-09-28T03:09:18.270Z,553
2018-09-28T03:10:20.403Z,552.8
2018-09-28T03:11:22.840Z,552.9
2018-09-28T03:12:24.775Z,552.8
2018-09-28T03:13:26.661Z,553
2018-09-28T03:14:28.815Z,553.1
2018-09-28T03:15:31.247Z,552.6
2018-09-28T03:16:33.416Z,552.7
2018-09-28T03:17:35.574Z,553
2018-09-28T03:18:37.730Z,553.2
2018-09-28T03:19:39.888Z,553.3
2018-09-28T03:20:42.057Z,553.4
2018-09-28T03:21:44.549Z,553.5
2018-09-28T03:22:46.968Z,553.2
2018-09-28T03:23:48.830Z,553.5
2018-09-28T03:24:51.260Z,553.5
2018-09-28T03:25:53.735Z,553.5
2018-09-28T03:26:55.876Z,553.4
2018-09-28T03:27:58.312Z,553.6
2018-09-28T03:29:00.456Z,553.4
2018-09-28T03:30:02.906Z,553.3
2018-09-28T03:31:05.348Z,553.6
2018-09-28T03:32:07.789Z,553
2018-09-28T03:33:10.216Z,553.2
2018-09-28T03:34:12.365Z,553.1
2018-09-28T03:35:14.802Z,553.1
2018-09-28T03:36:17.219Z,553.1
2018-09-28T03:37:20.158Z,553.1
2018-09-28T03:38:22.322Z,552.9
2018-09-28T03:39:24.767Z,552.9
2018-09-28T03:40:27.157Z,553
2018-09-28T03:41:29.319Z,552.9
2018-09-28T03:42:31.495Z,552.8
2018-09-28T03:43:33.661Z,553.1
2018-09-28T03:44:36.089Z,553.2
2018-09-28T03:45:38.548Z,553
2018-09-28T03:46:40.988Z,552.9
2018-09-28T03:47:43.178Z,553.3
2018-09-28T03:48:45.610Z,553.3
2018-09-28T03:49:48.062Z,553.5
2018-09-28T03:50:50.500Z,553.5
2018-09-28T03:51:52.667Z,553.5
2018-09-28T03:52:55.100Z,554
2018-09-28T03:53:57.530Z,553.5
2018-09-28T03:54:59.699Z,553.9
2018-09-28T03:56:01.851Z,553.7
2018-09-28T03:57:03.735Z,553.7
2018-09-28T03:58:05.877Z,553.6
2018-09-28T03:59:08.307Z,553.7
2018-09-28T04:00:10.736Z,553.4
2018-09-28T04:01:12.886Z,553.8
2018-09-28T04:02:15.052Z,553.8
2018-09-28T04:03:17.236Z,553.5
2018-09-28T04:04:19.657Z,553.7
2018-09-28T04:05:22.097Z,553.4
2018-09-28T04:06:24.505Z,553.4
2018-09-28T04:07:26.641Z,553.5
2018-09-28T04:08:29.058Z,553.3
2018-09-28T04:09:31.491Z,553.3
2018-09-28T04:10:33.631Z,553.6
2018-09-28T04:11:35.780Z,553.5
2018-09-28T04:12:38.226Z,554.1
2018-09-28T04:13:40.376Z,553.8
2018-09-28T04:14:42.542Z,554.3
2018-09-28T04:15:44.967Z,554.3
2018-09-28T04:16:47.127Z,554
2018-09-28T04:17:49.554Z,554.3
2018-09-28T04:18:51.988Z,554.2
2018-09-28T04:19:54.429Z,554
2018-09-28T04:20:56.596Z,554.2
2018-09-28T04:21:58.840Z,554
2018-09-28T04:23:01.017Z,554.2
2018-09-28T04:24:03.164Z,554
2018-09-28T04:25:05.596Z,554.1
2018-09-28T04:26:07.470Z,554.4
2018-09-28T04:27:09.926Z,554.4
2018-09-28T04:28:12.118Z,554.4
2018-09-28T04:29:14.552Z,554.1
2018-09-28T04:30:16.981Z,554.5
2018-09-28T04:31:19.417Z,554.5
2018-09-28T04:32:21.843Z,554.3
2018-09-28T04:33:24.281Z,554.3
2018-09-28T04:34:26.716Z,554.3
2018-09-28T04:35:29.143Z,554.2
2018-09-28T04:36:31.586Z,554.1
2018-09-28T04:37:34.012Z,553.8
2018-09-28T04:38:36.151Z,554.4
2018-09-28T04:39:38.635Z,554.2
2018-09-28T04:40:41.138Z,553.7
2018-09-28T04:41:43.573Z,553.8
2018-09-28T04:42:46.003Z,553.8
2018-09-28T04:43:48.437Z,553.4
2018-09-28T04:44:50.876Z,553.4
2018-09-28T04:45:53.303Z,553.3
2018-09-28T04:46:55.726Z,553.2
2018-09-28T04:47:58.158Z,553.2
2018-09-28T04:49:00.585Z,552.9
2018-09-28T04:50:02.748Z,553
2018-09-28T04:51:04.916Z,552.8
2018-09-28T04:52:07.352Z,553.1
2018-09-28T04:53:09.523Z,552.9
2018-09-28T04:54:11.690Z,552.8
2018-09-28T04:55:14.127Z,552.7
2018-09-28T04:56:16.565Z,552.8
2018-09-28T04:57:18.723Z,552.9
2018-09-28T04:58:21.169Z,553
2018-09-28T04:59:23.646Z,552.9
2018-09-28T05:00:26.093Z,553
2018-09-28T05:01:28.252Z,552.6
2018-09-28T05:02:30.415Z,553.1
2018-09-28T05:03:32.848Z,552.9
2018-09-28T05:04:35.001Z,553.1
2018-09-28T05:05:37.440Z,553
2018-09-28T05:06:39.606Z,552.8
2018-09-28T05:07:42.040Z,553.1
2018-09-28T05:08:44.475Z,553
2018-09-28T05:09:46.906Z,552.8
2018-09-28T05:10:49.345Z,552.6
2018-09-28T05:11:51.796Z,552.9
2018-09-28T05:12:54.221Z,552.8
2018-09-28T05:13:56.381Z,553.1
2018-09-28T05:14:58.810Z,553
2018-09-28T05:16:00.676Z,553
2018-09-28T05:17:03.115Z,552.8
2018-09-28T05:18:05.256Z,553
2018-09-28T05:19:07.685Z,553
2018-09-28T05:20:09.833Z,552.9
2018-09-28T05:21:12.001Z,553.1
2018-09-28T05:22:14.427Z,553.2
2018-09-28T05:23:16.865Z,553.1
2018-09-28T05:24:19.310Z,553
2018-09-28T05:25:22.196Z,553.1
2018-09-28T05:26:24.172Z,553.1
2018-09-28T05:27:26.333Z,552.6
2018-09-28T05:28:28.769Z,553.2
2018-09-28T05:29:31.203Z,552.9
2018-09-28T05:30:33.362Z,552.9
2018-09-28T05:31:36.186Z,553.1
2018-09-28T05:32:40.502Z,552.9
2018-09-28T05:33:42.909Z,552.9
2018-09-28T05:34:45.344Z,553.3
2018-09-28T05:35:47.499Z,553.2
2018-09-28T05:36:49.931Z,553.1
2018-09-28T05:37:52.375Z,553.2
2018-09-28T05:38:54.805Z,552.6
2018-09-28T05:39:56.965Z,553.2
2018-09-28T05:40:59.401Z,553
2018-09-28T05:42:01.836Z,552.9
2018-09-28T05:43:03.988Z,552.7
2018-09-28T05:44:06.432Z,553
2018-09-28T05:45:08.867Z,552.6
2018-09-28T05:46:11.377Z,553
2018-09-28T05:47:13.211Z,552.9
2018-09-28T05:48:15.087Z,552.8
2018-09-28T05:49:17.525Z,553.2
2018-09-28T05:50:19.952Z,553.4
2018-09-28T05:51:22.683Z,553.6
2018-09-28T05:52:24.840Z,553.2
2018-09-28T05:53:27.264Z,553.3
2018-09-28T05:54:29.143Z,553.6
2018-09-28T05:55:31.591Z,553.6
2018-09-28T05:56:34.019Z,553.6
2018-09-28T05:57:36.463Z,553.7
2018-09-28T05:58:39.413Z,553.8
2018-09-28T05:59:41.912Z,553.7
2018-09-28T06:00:44.357Z,553.8
2018-09-28T06:01:46.803Z,553.3
2018-09-28T06:02:49.225Z,553.5
2018-09-28T06:03:51.425Z,553.4
2018-09-28T06:04:53.923Z,553.5
2018-09-28T06:05:55.864Z,553.3
2018-09-28T06:06:58.030Z,553.6
2018-09-28T06:08:01.085Z,553.6
2018-09-28T06:09:03.523Z,553.1
2018-09-28T06:10:05.955Z,553.2
2018-09-28T06:11:08.385Z,552.9
2018-09-28T06:12:10.819Z,553.3
2018-09-28T06:13:12.974Z,553
2018-09-28T06:14:14.881Z,552.7
2018-09-28T06:15:17.314Z,552.7
2018-09-28T06:16:19.465Z,552.4
2018-09-28T06:17:21.926Z,552.4
2018-09-28T06:18:24.243Z,552.4
2018-09-28T06:19:26.784Z,552.1
2018-09-28T06:20:29.215Z,551.9
2018-09-28T06:21:30.817Z,551.8
2018-09-28T06:22:33.251Z,551.9
2018-09-28T06:23:35.685Z,551.6
2018-09-28T06:24:37.839Z,552
2018-09-28T06:25:40.003Z,551.8
2018-09-28T06:26:42.258Z,551.7
2018-09-28T06:27:44.701Z,551.9
2018-09-28T06:28:46.863Z,551.5
2018-09-28T06:29:48.588Z,551.6
2018-09-28T06:30:50.739Z,551.6
2018-09-28T06:31:53.179Z,551.5
2018-09-28T06:32:55.626Z,551.6
2018-09-28T06:33:57.790Z,551.4
2018-09-28T06:35:00.218Z,551.2
2018-09-28T06:36:02.773Z,551.3
2018-09-28T06:37:05.199Z,551.3
2018-09-28T06:38:07.655Z,551.2
2018-09-28T06:39:10.083Z,551.2
2018-09-28T06:40:12.508Z,551.2
2018-09-28T06:41:14.949Z,551.1
2018-09-28T06:42:17.589Z,551.1
2018-09-28T06:43:20.006Z,551
2018-09-28T06:44:22.441Z,551.2
2018-09-28T06:45:24.597Z,551
2018-09-28T06:46:27.046Z,550.8
2018-09-28T06:47:29.494Z,551
2018-09-28T06:48:31.919Z,550.4
2018-09-28T06:49:34.351Z,550.6
2018-09-28T06:50:36.779Z,550.5
2018-09-28T06:51:38.927Z,550.9
2018-09-28T06:52:41.073Z,550.2
2018-09-28T06:53:43.756Z,550.8
2018-09-28T06:54:46.187Z,550.5
2018-09-28T06:55:48.619Z,550.3
2018-09-28T06:56:51.053Z,550.1
2018-09-28T06:57:53.493Z,550.2
2018-09-28T06:58:55.927Z,550.8
2018-09-28T06:59:58.999Z,550.7
2018-09-28T07:01:01.534Z,550.6
2018-09-28T07:02:03.956Z,550.7
2018-09-28T07:03:06.396Z,550.7
2018-09-28T07:04:09.376Z,550.6
2018-09-28T07:05:11.874Z,550.8
2018-09-28T07:06:14.816Z,550.6
2018-09-28T07:07:16.864Z,550.8
2018-09-28T07:08:19.318Z,550.2
2018-09-28T07:09:21.652Z,550.7
2018-09-28T07:10:23.872Z,550.8
2018-09-28T07:11:26.035Z,550.5
2018-09-28T07:12:28.467Z,550.6
2018-09-28T07:13:30.929Z,550.6
2018-09-28T07:14:33.105Z,550.6
2018-09-28T07:15:35.540Z,550.3
2018-09-28T07:16:37.873Z,550.3
2018-09-28T07:17:40.414Z,550.5
2018-09-28T07:18:42.305Z,550.3
2018-09-28T07:19:44.774Z,549.6
2018-09-28T07:20:46.950Z,550
2018-09-28T07:21:49.388Z,549.6
2018-09-28T07:22:51.814Z,549.5
2018-09-28T07:23:54.643Z,549.3
2018-09-28T07:24:56.675Z,549.4
2018-09-28T07:25:58.784Z,549.5
2018-09-28T07:27:00.375Z,549
2018-09-28T07:28:02.535Z,549.1
2018-09-28T07:29:04.711Z,548.7
2018-09-28T07:30:07.142Z,549
2018-09-28T07:31:09.308Z,549.1
2018-09-28T07:32:11.202Z,549.2
2018-09-28T07:33:13.366Z,549.1
2018-09-28T07:34:16.408Z,549.3
2018-09-28T07:35:18.862Z,549.2
2018-09-28T07:36:21.762Z,549.4
2018-09-28T07:37:24.025Z,549.3
2018-09-28T07:38:26.462Z,549.1
2018-09-28T07:39:28.633Z,549.3
2018-09-28T07:40:30.525Z,549.3
2018-09-28T07:41:32.962Z,549.3
2018-09-28T07:42:35.385Z,549.2
2018-09-28T07:43:37.819Z,549.2
2018-09-28T07:44:40.259Z,549.2
2018-09-28T07:45:42.693Z,549.5
2018-09-28T07:46:45.132Z,549.3
2018-09-28T07:47:47.533Z,549.2
2018-09-28T07:48:49.695Z,549.2
2018-09-28T07:49:51.593Z,549.4
2018-09-28T07:50:53.761Z,549.3
2018-09-28T07:51:56.208Z,549.1
2018-09-28T07:52:58.648Z,549.2
2018-09-28T07:54:01.081Z,549
2018-09-28T07:55:03.503Z,549.2
2018-09-28T07:56:05.962Z,548.7
2018-09-28T07:57:08.384Z,548.6
2018-09-28T07:58:10.549Z,548.8
2018-09-28T07:59:12.820Z,549
2018-09-28T08:00:15.035Z,548.8
2018-09-28T08:01:17.476Z,548.7
2018-09-28T08:02:19.604Z,549
2018-09-28T08:03:21.767Z,548.6
2018-09-28T08:04:24.189Z,548.6
2018-09-28T08:05:26.359Z,548.7
2018-09-28T08:06:28.790Z,548.4
2018-09-28T08:07:30.946Z,549.1
2018-09-28T08:08:33.378Z,548.4
2018-09-28T08:09:35.804Z,548.6
2018-09-28T08:10:38.249Z,548.9
2018-09-28T08:11:40.669Z,548.7
2018-09-28T08:12:42.828Z,548.7
2018-09-28T08:13:45.280Z,549
2018-09-28T08:14:47.430Z,548.9
2018-09-28T08:15:49.858Z,548.8
2018-09-28T08:16:52.289Z,549
2018-09-28T08:17:54.972Z,549.1
2018-09-28T08:18:57.458Z,548.9
2018-09-28T08:19:59.366Z,548.9
2018-09-28T08:21:01.796Z,548.8
2018-09-28T08:22:04.231Z,548.9
2018-09-28T08:23:06.682Z,548.7
2018-09-28T08:24:09.111Z,548.9
2018-09-28T08:25:11.537Z,549
2018-09-28T08:26:13.968Z,549.1
2018-09-28T08:27:16.128Z,549
2018-09-28T08:28:18.560Z,549.2
2018-09-28T08:29:20.990Z,549.4
2018-09-28T08:30:23.683Z,548.2
2018-09-28T08:31:26.113Z,549.1
2018-09-28T08:32:28.568Z,548.9
2018-09-28T08:33:30.718Z,549
2018-09-28T08:34:32.879Z,548.7
2018-09-28T08:35:35.323Z,548.6
2018-09-28T08:36:37.938Z,548.5
2018-09-28T08:37:40.364Z,548.8
2018-09-28T08:38:42.800Z,548.7
2018-09-28T08:39:44.986Z,548.8
2018-09-28T08:40:47.420Z,548.5
2018-09-28T08:41:50.236Z,548.7
2018-09-28T08:42:52.648Z,548.7
2018-09-28T08:43:55.087Z,548.7
2018-09-28T08:44:57.516Z,548.4
2018-09-28T08:45:59.678Z,548.6
2018-09-28T08:47:02.140Z,548.7
2018-09-28T08:48:04.577Z,549.2
2018-09-28T08:49:07.207Z,548.8
2018-09-28T08:50:09.639Z,548.5
2018-09-28T08:51:12.067Z,548.6
2018-09-28T08:52:14.221Z,549.1
2018-09-28T08:53:16.652Z,549.3
2018-09-28T08:54:19.079Z,549.3
2018-09-28T08:55:21.336Z,549.4
2018-09-28T08:56:23.772Z,549.4
2018-09-28T08:57:26.202Z,549.7
2018-09-28T08:58:28.361Z,549.4
2018-09-28T08:59:30.499Z,549.5
2018-09-28T09:00:32.939Z,549.4
2018-09-28T09:01:35.374Z,549.5
2018-09-28T09:02:37.806Z,549.3
2018-09-28T09:03:40.250Z,549.3
2018-09-28T09:04:42.672Z,549.3
2018-09-28T09:05:45.135Z,549.4
2018-09-28T09:06:47.319Z,549.5
2018-09-28T09:07:49.482Z,549.4
2018-09-28T09:08:51.915Z,549.9
2018-09-28T09:09:54.354Z,549.4
2018-09-28T09:10:56.795Z,549.7
2018-09-28T09:11:59.229Z,549.6
2018-09-28T09:13:01.659Z,549.7
2018-09-28T09:14:04.084Z,549.3
2018-09-28T09:15:06.235Z,550.6
2018-09-28T09:16:08.419Z,550.7
2018-09-28T09:17:10.849Z,550
2018-09-28T09:18:13.806Z,550.4
2018-09-28T09:19:16.285Z,550.6
2018-09-28T09:20:18.437Z,550.1
2018-09-28T09:21:20.879Z,550.7
2018-09-28T09:22:23.038Z,550.6
2018-09-28T09:23:25.189Z,550.8
2018-09-28T09:24:27.611Z,549.9
2018-09-28T09:25:30.043Z,550.6
2018-09-28T09:26:32.186Z,550.6
2018-09-28T09:27:34.613Z,551.3
2018-09-28T09:28:36.752Z,550.8
2018-09-28T09:29:38.901Z,551.2
2018-09-28T09:30:41.336Z,551.5
2018-09-28T09:31:43.496Z,551.2
2018-09-28T09:32:45.928Z,551.3
2018-09-28T09:33:48.352Z,551.2
2018-09-28T09:34:50.796Z,550.8
2018-09-28T09:35:53.235Z,550.9
2018-09-28T09:36:55.673Z,550.9
2018-09-28T09:37:58.105Z,550.8
2018-09-28T09:39:00.276Z,551.1
2018-09-28T09:40:02.445Z,551.2
2018-09-28T09:41:04.596Z,551.2
2018-09-28T09:42:07.024Z,551.1
2018-09-28T09:43:09.469Z,551.3
2018-09-28T09:44:11.920Z,551.6
2018-09-28T09:45:14.363Z,551
2018-09-28T09:46:16.258Z,551.4
2018-09-28T09:47:18.426Z,551.7
2018-09-28T09:48:20.949Z,551.3
2018-09-28T09:49:23.098Z,551.6
2018-09-28T09:50:25.529Z,551.8
2018-09-28T09:51:27.958Z,552.2
2018-09-28T09:52:30.116Z,552.1
2018-09-28T09:53:32.542Z,552.1
2018-09-28T09:54:34.703Z,552.3
2018-09-28T09:55:36.862Z,552.1
2018-09-28T09:56:39.042Z,552.2
2018-09-28T09:57:41.739Z,552.4
2018-09-28T09:58:43.888Z,552.7
2018-09-28T09:59:46.314Z,552.8
2018-09-28T10:00:48.752Z,553.3
2018-09-28T10:01:51.195Z,552.9
2018-09-28T10:02:53.346Z,552.9
2018-09-28T10:03:55.777Z,553.4
2018-09-28T10:04:58.216Z,553.6
2018-09-28T10:06:00.120Z,553.3
2018-09-28T10:07:02.566Z,553.5
2018-09-28T10:08:04.738Z,553.6
2018-09-28T10:09:07.174Z,553
2018-09-28T10:10:09.596Z,553.6
2018-09-28T10:11:12.034Z,553.7
2018-09-28T10:12:14.704Z,553.7
2018-09-28T10:13:17.143Z,553.6
2018-09-28T10:14:19.578Z,553.4
2018-09-28T10:15:22.015Z,553.6
2018-09-28T10:16:24.447Z,553.5
2018-09-28T10:17:26.600Z,553.8
2018-09-28T10:18:29.031Z,553.5
2018-09-28T10:19:31.664Z,553.4
2018-09-28T10:20:34.097Z,553.6
2018-09-28T10:21:36.550Z,553.7
2018-09-28T10:22:38.984Z,553.2
2018-09-28T10:23:41.416Z,553.3
2018-09-28T10:24:43.588Z,553.5
2018-09-28T10:25:46.042Z,553.3
2018-09-28T10:26:48.478Z,554
2018-09-28T10:27:51.535Z,553.7
2018-09-28T10:28:53.481Z,553.5
2018-09-28T10:29:55.646Z,553.7
2018-09-28T10:30:58.136Z,553.5
2018-09-28T10:32:00.570Z,553.6
2018-09-28T10:33:02.745Z,553.9
2018-09-28T10:34:04.614Z,553.8
2018-09-28T10:35:07.037Z,554
2018-09-28T10:36:09.193Z,554
2018-09-28T10:37:11.358Z,553.9
2018-09-28T10:38:13.795Z,554.2
2018-09-28T10:39:16.207Z,554.2
2018-09-28T10:40:18.421Z,553.7
2018-09-28T10:41:20.917Z,553.9
2018-09-28T10:42:23.346Z,553.6
2018-09-28T10:43:25.215Z,553.8
2018-09-28T10:44:27.647Z,554.1
2018-09-28T10:45:30.429Z,554.2
2018-09-28T10:46:33.086Z,553.8
2018-09-28T10:47:35.286Z,554.3
2018-09-28T10:48:37.719Z,554.1
2018-09-28T10:49:40.159Z,554.1
2018-09-28T10:50:42.647Z,554.2
2018-09-28T10:51:45.480Z,554.1
2018-09-28T10:52:48.852Z,554.7
2018-09-28T10:53:50.909Z,554.6
2018-09-28T10:54:53.348Z,554.7
2018-09-28T10:55:55.768Z,554.6
2018-09-28T10:56:58.197Z,554.8
2018-09-28T10:58:00.635Z,554.9
2018-09-28T10:59:03.080Z,555
2018-09-28T11:00:05.505Z,555.4
2018-09-28T11:01:07.946Z,555.9
2018-09-28T11:02:10.378Z,555.6
2018-09-28T11:03:12.387Z,555.6
2018-09-28T11:04:14.984Z,555.5
2018-09-28T11:05:17.414Z,555.5
2018-09-28T11:06:19.590Z,556.1
2018-09-28T11:07:22.023Z,556.1
2018-09-28T11:08:24.916Z,556
2018-09-28T11:09:27.755Z,556.6
2018-09-28T11:10:30.400Z,556.5
2018-09-28T11:11:32.818Z,557
2018-09-28T11:12:35.245Z,556.7
2018-09-28T11:13:37.676Z,556.2
2018-09-28T11:14:40.102Z,556.1
2018-09-28T11:15:42.773Z,556.4
2018-09-28T11:16:45.257Z,556.7
2018-09-28T11:17:47.146Z,557.3
2018-09-28T11:18:49.731Z,557.6
2018-09-28T11:19:52.194Z,557.2
2018-09-28T11:20:54.375Z,557.6
2018-09-28T11:21:56.802Z,557.7
2018-09-28T11:22:58.974Z,557.9
2018-09-28T11:24:01.410Z,558
2018-09-28T11:25:03.843Z,558.2
2018-09-28T11:26:06.284Z,557.8
2018-09-28T11:27:08.737Z,557.9
2018-09-28T11:28:11.165Z,557.7
2018-09-28T11:29:13.596Z,558
2018-09-28T11:30:15.746Z,558.2
2018-09-28T11:31:17.891Z,558.3
2018-09-28T11:32:20.058Z,558.7
2018-09-28T11:33:22.957Z,558.5
2018-09-28T11:34:25.130Z,559.3
2018-09-28T11:35:27.316Z,559
2018-09-28T11:36:29.742Z,559
2018-09-28T11:37:32.242Z,559.2
2018-09-28T11:38:34.403Z,559.6
2018-09-28T11:39:36.911Z,559.5
2018-09-28T11:40:39.393Z,559.7
2018-09-28T11:41:41.824Z,559.6
2018-09-28T11:42:44.264Z,559.1
2018-09-28T11:43:46.704Z,559.3
2018-09-28T11:44:49.139Z,559.6
2018-09-28T11:45:51.915Z,559.3
2018-09-28T11:46:54.387Z,559.4
2018-09-28T11:47:56.825Z,559.5
2018-09-28T11:48:59.070Z,559.8
2018-09-28T11:50:01.483Z,559.9
2018-09-28T11:51:03.627Z,559.8
2018-09-28T11:52:06.069Z,559.6
2018-09-28T11:53:08.504Z,559.5
2018-09-28T11:54:10.665Z,559.5
2018-09-28T11:55:12.564Z,559.5
2018-09-28T11:56:14.837Z,558.9
2018-09-28T11:57:17.630Z,559.1
2018-09-28T11:58:20.117Z,559.7
2018-09-28T11:59:22.543Z,559.7
2018-09-28T12:00:24.973Z,559.4
2018-09-28T12:01:27.406Z,559.9
2018-09-28T12:02:29.291Z,560.2
2018-09-28T12:03:32.346Z,560.7
2018-09-28T12:04:34.796Z,560.5
2018-09-28T12:05:36.958Z,560.1
2018-09-28T12:06:40.430Z,560.3
2018-09-28T12:07:43.058Z,560.4
2018-09-28T12:08:45.487Z,560.4
2018-09-28T12:09:48.540Z,560.3
2018-09-28T12:10:51.269Z,560.9
2018-09-28T12:11:53.137Z,561
2018-09-28T12:12:55.308Z,560.9
2018-09-28T12:13:57.746Z,561.5
2018-09-28T12:14:59.902Z,561.2
2018-09-28T12:16:02.343Z,561.1
2018-09-28T12:17:04.984Z,561.5
2018-09-28T12:18:07.477Z,561.5
2018-09-28T12:19:09.908Z,561.2
2018-09-28T12:20:12.133Z,562.1
2018-09-28T12:21:14.806Z,561.8
2018-09-28T12:22:17.023Z,562.6
2018-09-28T12:23:19.476Z,562.4
2018-09-28T12:24:22.195Z,562.6
2018-09-28T12:25:24.670Z,563
2018-09-28T12:26:27.107Z,563
2018-09-28T12:27:29.710Z,563.3
2018-09-28T12:28:31.834Z,563.3
2018-09-28T12:29:34.267Z,563.1
2018-09-28T12:30:36.975Z,563.2
2018-09-28T12:31:39.406Z,563.5
2018-09-28T12:32:41.841Z,563.5
2018-09-28T12:33:44.886Z,563.9
2018-09-28T12:34:47.075Z,564.2
2018-09-28T12:35:49.507Z,564.2
2018-09-28T12:36:52.185Z,564.7
2018-09-28T12:37:54.627Z,564.6
2018-09-28T12:38:57.204Z,564.8
2018-09-28T12:40:00.073Z,564.9
2018-09-28T12:41:02.601Z,564.8
2018-09-28T12:42:05.036Z,565
2018-09-28T12:43:07.460Z,565.5
2018-09-28T12:44:10.017Z,565.5
2018-09-28T12:45:12.874Z,565
2018-09-28T12:46:15.337Z,565.3
2018-09-28T12:47:17.498Z,565.3
2018-09-28T12:48:19.974Z,564.8
2018-09-28T12:49:22.137Z,565.6
2018-09-28T12:50:25.223Z,565.3
2018-09-28T12:51:27.730Z,565.4
2018-09-28T12:52:29.882Z,566.1
2018-09-28T12:53:32.551Z,566.1
2018-09-28T12:54:34.886Z,566.1
2018-09-28T12:55:37.312Z,566.1
2018-09-28T12:56:39.946Z,566.4
2018-09-28T12:57:42.426Z,566.4
2018-09-28T12:58:44.595Z,566.5
2018-09-28T12:59:47.027Z,566.7
2018-09-28T13:00:50.328Z,566.7
2018-09-28T13:01:52.616Z,566.8
2018-09-28T13:02:54.825Z,567.3
2018-09-28T13:03:57.266Z,567.1
2018-09-28T13:04:59.180Z,567.6
2018-09-28T13:06:01.616Z,567.3
2018-09-28T13:07:04.046Z,567.3
2018-09-28T13:08:06.276Z,567.7
2018-09-28T13:09:08.706Z,567.5
2018-09-28T13:10:11.136Z,568.2
2018-09-28T13:11:13.029Z,567.8
2018-09-28T13:12:15.868Z,568.1
2018-09-28T13:13:18.308Z,567.9
2018-09-28T13:14:21.191Z,568.4
2018-09-28T13:15:23.677Z,568.4
2018-09-28T13:16:26.101Z,568.7
2018-09-28T13:17:27.985Z,568.5
2018-09-28T13:18:30.733Z,568.7
2018-09-28T13:19:33.239Z,568.3
2018-09-28T13:20:35.804Z,568.4
2018-09-28T13:21:38.438Z,568.6
2018-09-28T13:22:40.588Z,569.1
2018-09-28T13:23:43.042Z,568.6
2018-09-28T13:24:45.242Z,568.9
2018-09-28T13:25:47.736Z,569.4
2018-09-28T13:26:50.811Z,569.6
2018-09-28T13:27:53.323Z,569.3